sensor_id;sensor_type;location;lat;lon;timestamp;pressure;altitude;pressure_sealevel;temperature;humidity
24788;BME280;12883;52.662;5.196;2024-01-30T00:01:38;101333.59;;;6.94;100.00
24788;BME280;12883;52.662;5.196;2024-01-30T00:04:04;101337.25;;;6.93;100.00
24788;BME280;12883;52.662;5.196;2024-01-30T00:06:29;101326.69;;;6.93;100.00
24788;BME280;12883;52.662;5.196;2024-01-30T00:08:55;101318.91;;;6.76;100.00
24788;BME280;12883;52.662;5.196;2024-01-30T00:11:20;101321.03;;;6.64;100.00
24788;BME280;12883;52.662;5.196;2024-01-30T00:13:46;101348.56;;;6.78;100.00
24788;BME280;12883;52.662;5.196;2024-01-30T00:16:21;101301.53;;;6.49;100.00
24788;BME280;12883;52.662;5.196;2024-01-30T00:18:47;101341.97;;;6.74;100.00
24788;BME280;12883;52.662;5.196;2024-01-30T00:21:12;101331.91;;;6.77;100.00
24788;BME280;12883;52.662;5.196;2024-01-30T00:23:38;101327.47;;;6.78;100.00
24788;BME280;12883;52.662;5.196;2024-01-30T00:26:03;101301.38;;;6.59;100.00
24788;BME280;12883;52.662;5.196;2024-01-30T00:28:30;101306.50;;;6.60;100.00
24788;BME280;12883;52.662;5.196;2024-01-30T00:30:55;101310.50;;;6.64;100.00
24788;BME280;12883;52.662;5.196;2024-01-30T00:33:20;101319.22;;;6.65;100.00
24788;BME280;12883;52.662;5.196;2024-01-30T00:35:46;101311.78;;;6.68;100.00
24788;BME280;12883;52.662;5.196;2024-01-30T00:38:12;101289.56;;;6.63;100.00
24788;BME280;12883;52.662;5.196;2024-01-30T00:40:37;101285.28;;;6.70;100.00
24788;BME280;12883;52.662;5.196;2024-01-30T00:43:03;101285.63;;;6.75;100.00
24788;BME280;12883;52.662;5.196;2024-01-30T00:45:28;101277.38;;;6.78;100.00
24788;BME280;12883;52.662;5.196;2024-01-30T00:47:53;101282.84;;;6.84;100.00
24788;BME280;12883;52.662;5.196;2024-01-30T00:50:19;101276.56;;;6.85;100.00
24788;BME280;12883;52.662;5.196;2024-01-30T00:52:44;101278.53;;;6.83;100.00
24788;BME280;12883;52.662;5.196;2024-01-30T00:55:10;101215.22;;;6.51;100.00
24788;BME280;12883;52.662;5.196;2024-01-30T00:57:36;101222.66;;;6.56;100.00
24788;BME280;12883;52.662;5.196;2024-01-30T01:00:02;101265.38;;;6.91;100.00
24788;BME280;12883;52.662;5.196;2024-01-30T01:02:28;101265.53;;;6.98;100.00
24788;BME280;12883;52.662;5.196;2024-01-30T01:04:53;101266.84;;;7.02;100.00
24788;BME280;12883;52.662;5.196;2024-01-30T01:07:19;101248.88;;;7.05;100.00
24788;BME280;12883;52.662;5.196;2024-01-30T01:09:44;101248.38;;;7.10;100.00
24788;BME280;12883;52.662;5.196;2024-01-30T01:12:09;101239.28;;;7.04;100.00
24788;BME280;12883;52.662;5.196;2024-01-30T01:14:35;101237.63;;;7.11;100.00
24788;BME280;12883;52.662;5.196;2024-01-30T01:17:01;101212.59;;;7.07;100.00
24788;BME280;12883;52.662;5.196;2024-01-30T01:19:27;101232.19;;;7.13;100.00
24788;BME280;12883;52.662;5.196;2024-01-30T01:21:52;101215.53;;;7.04;100.00
24788;BME280;12883;52.662;5.196;2024-01-30T01:24:18;101225.78;;;7.07;100.00
24788;BME280;12883;52.662;5.196;2024-01-30T01:26:43;101230.06;;;7.08;100.00
24788;BME280;12883;52.662;5.196;2024-01-30T01:29:09;101220.66;;;7.06;100.00
24788;BME280;12883;52.662;5.196;2024-01-30T01:31:38;101225.13;;;7.05;100.00
24788;BME280;12883;52.662;5.196;2024-01-30T01:34:12;101230.41;;;7.05;100.00
24788;BME280;12883;52.662;5.196;2024-01-30T01:36:38;101240.13;;;7.05;100.00
24788;BME280;12883;52.662;5.196;2024-01-30T01:39:03;101239.97;;;6.98;100.00
24788;BME280;12883;52.662;5.196;2024-01-30T01:41:30;101200.41;;;6.74;100.00
24788;BME280;12883;52.662;5.196;2024-01-30T01:43:57;101219.53;;;6.92;100.00
24788;BME280;12883;52.662;5.196;2024-01-30T01:46:22;101173.53;;;6.63;100.00
24788;BME280;12883;52.662;5.196;2024-01-30T01:48:48;101232.06;;;6.98;100.00
24788;BME280;12883;52.662;5.196;2024-01-30T01:51:14;101210.47;;;6.95;100.00
24788;BME280;12883;52.662;5.196;2024-01-30T01:53:40;101213.41;;;6.92;100.00
24788;BME280;12883;52.662;5.196;2024-01-30T01:56:05;101209.97;;;6.91;100.00
24788;BME280;12883;52.662;5.196;2024-01-30T01:58:31;101209.97;;;6.91;100.00
24788;BME280;12883;52.662;5.196;2024-01-30T02:00:57;101210.94;;;6.90;100.00
24788;BME280;12883;52.662;5.196;2024-01-30T02:03:24;101197.09;;;6.88;100.00
24788;BME280;12883;52.662;5.196;2024-01-30T02:05:50;101141.25;;;6.69;100.00
24788;BME280;12883;52.662;5.196;2024-01-30T02:08:16;101177.81;;;6.96;100.00
24788;BME280;12883;52.662;5.196;2024-01-30T02:10:41;101158.53;;;6.87;100.00
24788;BME280;12883;52.662;5.196;2024-01-30T02:13:06;101171.72;;;6.87;100.00
24788;BME280;12883;52.662;5.196;2024-01-30T02:15:32;101158.34;;;6.81;100.00
24788;BME280;12883;52.662;5.196;2024-01-30T02:17:57;101170.41;;;6.91;100.00
24788;BME280;12883;52.662;5.196;2024-01-30T02:20:24;101166.44;;;6.95;100.00
24788;BME280;12883;52.662;5.196;2024-01-30T02:22:51;101146.31;;;7.02;100.00
24788;BME280;12883;52.662;5.196;2024-01-30T02:25:17;101132.78;;;7.05;100.00
24788;BME280;12883;52.662;5.196;2024-01-30T02:27:43;101143.63;;;7.10;100.00
24788;BME280;12883;52.662;5.196;2024-01-30T02:30:08;101121.06;;;7.16;100.00
24788;BME280;12883;52.662;5.196;2024-01-30T02:32:34;101122.81;;;7.23;100.00
24788;BME280;12883;52.662;5.196;2024-01-30T02:34:59;101071.00;;;6.84;100.00
24788;BME280;12883;52.662;5.196;2024-01-30T02:37:25;101120.03;;;7.25;100.00
24788;BME280;12883;52.662;5.196;2024-01-30T02:39:50;101097.31;;;7.16;100.00
24788;BME280;12883;52.662;5.196;2024-01-30T02:42:15;101099.06;;;7.23;100.00
24788;BME280;12883;52.662;5.196;2024-01-30T02:44:41;101111.47;;;7.23;100.00
24788;BME280;12883;52.662;5.196;2024-01-30T02:47:06;101109.78;;;7.22;100.00
24788;BME280;12883;52.662;5.196;2024-01-30T02:49:31;101086.94;;;7.06;100.00
24788;BME280;12883;52.662;5.196;2024-01-30T02:51:57;101091.22;;;7.07;100.00
24788;BME280;12883;52.662;5.196;2024-01-30T02:54:22;101099.47;;;7.12;100.00
24788;BME280;12883;52.662;5.196;2024-01-30T02:56:47;101109.19;;;7.12;100.00
24788;BME280;12883;52.662;5.196;2024-01-30T02:59:13;101075.94;;;6.95;100.00
24788;BME280;12883;52.662;5.196;2024-01-30T03:01:43;101121.34;;;7.21;100.00
24788;BME280;12883;52.662;5.196;2024-01-30T03:04:09;101132.56;;;7.23;100.00
24788;BME280;12883;52.662;5.196;2024-01-30T03:06:34;101115.22;;;7.28;100.00
24788;BME280;12883;52.662;5.196;2024-01-30T03:08:59;101085.88;;;7.23;100.00
24788;BME280;12883;52.662;5.196;2024-01-30T03:11:25;101090.31;;;7.31;100.00
24788;BME280;12883;52.662;5.196;2024-01-30T03:13:50;101091.97;;;7.32;100.00
24788;BME280;12883;52.662;5.196;2024-01-30T03:16:15;101071.38;;;7.27;100.00
24788;BME280;12883;52.662;5.196;2024-01-30T03:18:41;101081.25;;;7.33;100.00
24788;BME280;12883;52.662;5.196;2024-01-30T03:21:06;101081.88;;;7.35;100.00
24788;BME280;12883;52.662;5.196;2024-01-30T03:23:31;101086.31;;;7.35;100.00
24788;BME280;12883;52.662;5.196;2024-01-30T03:25:57;101074.44;;;7.39;100.00
24788;BME280;12883;52.662;5.196;2024-01-30T03:28:23;101061.41;;;7.37;100.00
24788;BME280;12883;52.662;5.196;2024-01-30T03:30:48;101011.13;;;7.00;100.00
24788;BME280;12883;52.662;5.196;2024-01-30T03:33:13;101066.66;;;7.45;100.00
24788;BME280;12883;52.662;5.196;2024-01-30T03:35:39;101066.31;;;7.48;100.00
24788;BME280;12883;52.662;5.196;2024-01-30T03:38:04;101052.28;;;7.48;100.00
24788;BME280;12883;52.662;5.196;2024-01-30T03:40:29;101055.06;;;7.54;100.00
24788;BME280;12883;52.662;5.196;2024-01-30T03:42:55;101037.59;;;7.45;100.00
24788;BME280;12883;52.662;5.196;2024-01-30T03:45:20;101014.41;;;7.33;100.00
24788;BME280;12883;52.662;5.196;2024-01-30T03:47:45;101053.69;;;7.58;100.00
24788;BME280;12883;52.662;5.196;2024-01-30T03:50:11;101061.63;;;7.58;100.00
24788;BME280;12883;52.662;5.196;2024-01-30T03:52:36;101056.00;;;7.61;100.00
24788;BME280;12883;52.662;5.196;2024-01-30T03:55:02;101058.28;;;7.64;100.00
24788;BME280;12883;52.662;5.196;2024-01-30T03:57:27;101061.56;;;7.66;100.00
24788;BME280;12883;52.662;5.196;2024-01-30T03:59:52;101041.66;;;7.56;100.00
24788;BME280;12883;52.662;5.196;2024-01-30T04:02:18;101062.53;;;7.73;100.00
24788;BME280;12883;52.662;5.196;2024-01-30T04:04:44;101079.03;;;7.75;100.00
24788;BME280;12883;52.662;5.196;2024-01-30T04:07:09;101082.19;;;7.71;100.00
24788;BME280;12883;52.662;5.196;2024-01-30T04:09:34;101052.75;;;7.51;100.00
24788;BME280;12883;52.662;5.196;2024-01-30T04:12:00;101084.66;;;7.72;100.00
24788;BME280;12883;52.662;5.196;2024-01-30T04:14:27;101062.94;;;7.62;100.00
24788;BME280;12883;52.662;5.196;2024-01-30T04:16:53;101070.16;;;7.68;100.00
24788;BME280;12883;52.662;5.196;2024-01-30T04:19:18;101079.03;;;7.75;100.00
24788;BME280;12883;52.662;5.196;2024-01-30T04:21:44;101063.00;;;7.77;100.00
24788;BME280;12883;52.662;5.196;2024-01-30T04:24:09;101070.91;;;7.77;100.00
24788;BME280;12883;52.662;5.196;2024-01-30T04:26:34;101062.19;;;7.76;100.00
24788;BME280;12883;52.662;5.196;2024-01-30T04:29:00;101069.09;;;7.77;100.00
24788;BME280;12883;52.662;5.196;2024-01-30T04:31:25;101074.75;;;7.74;100.00
24788;BME280;12883;52.662;5.196;2024-01-30T04:33:50;101067.53;;;7.68;100.00
24788;BME280;12883;52.662;5.196;2024-01-30T04:36:16;101079.91;;;7.68;100.00
24788;BME280;12883;52.662;5.196;2024-01-30T04:38:42;101092.56;;;7.72;100.00
24788;BME280;12883;52.662;5.196;2024-01-30T04:41:07;101103.13;;;7.72;100.00
24788;BME280;12883;52.662;5.196;2024-01-30T04:43:32;101094.56;;;7.70;100.00
24788;BME280;12883;52.662;5.196;2024-01-30T04:45:58;101107.13;;;7.68;100.00
24788;BME280;12883;52.662;5.196;2024-01-30T04:48:23;101114.91;;;7.62;100.00
24788;BME280;12883;52.662;5.196;2024-01-30T04:50:48;101112.78;;;7.57;100.00
24788;BME280;12883;52.662;5.196;2024-01-30T04:53:14;101119.03;;;7.64;100.00
24788;BME280;12883;52.662;5.196;2024-01-30T04:55:39;101111.94;;;7.65;100.00
24788;BME280;12883;52.662;5.196;2024-01-30T04:58:04;101109.47;;;7.63;100.00
24788;BME280;12883;52.662;5.196;2024-01-30T05:00:30;101101.84;;;7.68;100.00
24788;BME280;12883;52.662;5.196;2024-01-30T05:02:55;101085.19;;;7.68;100.00
24788;BME280;12883;52.662;5.196;2024-01-30T05:05:21;101096.84;;;7.73;100.00
24788;BME280;12883;52.662;5.196;2024-01-30T05:07:47;101068.28;;;7.54;100.00
24788;BME280;12883;52.662;5.196;2024-01-30T05:10:12;101105.09;;;7.78;100.00
24788;BME280;12883;52.662;5.196;2024-01-30T05:12:39;101095.88;;;7.74;100.00
24788;BME280;12883;52.662;5.196;2024-01-30T05:15:04;101091.28;;;7.68;100.00
24788;BME280;12883;52.662;5.196;2024-01-30T05:17:30;101096.34;;;7.78;100.00
24788;BME280;12883;52.662;5.196;2024-01-30T05:19:55;101088.59;;;7.76;100.00
24788;BME280;12883;52.662;5.196;2024-01-30T05:22:20;101104.97;;;7.72;100.00
24788;BME280;12883;52.662;5.196;2024-01-30T05:24:46;101100.50;;;7.72;100.00
24788;BME280;12883;52.662;5.196;2024-01-30T05:27:11;101083.06;;;7.63;100.00
24788;BME280;12883;52.662;5.196;2024-01-30T05:29:38;101097.53;;;7.75;100.00
24788;BME280;12883;52.662;5.196;2024-01-30T05:32:04;101097.22;;;7.70;100.00
24788;BME280;12883;52.662;5.196;2024-01-30T05:34:30;101100.44;;;7.80;100.00
24788;BME280;12883;52.662;5.196;2024-01-30T05:36:56;101098.47;;;7.82;100.00
24788;BME280;12883;52.662;5.196;2024-01-30T05:39:21;101099.13;;;7.84;100.00
24788;BME280;12883;52.662;5.196;2024-01-30T05:41:46;101117.59;;;7.84;100.00
24788;BME280;12883;52.662;5.196;2024-01-30T05:44:12;101106.19;;;7.84;100.00
24788;BME280;12883;52.662;5.196;2024-01-30T05:46:37;101109.84;;;7.83;100.00
24788;BME280;12883;52.662;5.196;2024-01-30T05:49:03;101113.00;;;7.78;100.00
24788;BME280;12883;52.662;5.196;2024-01-30T05:51:28;101122.25;;;7.82;100.00
24788;BME280;12883;52.662;5.196;2024-01-30T05:53:53;101076.19;;;7.54;100.00
24788;BME280;12883;52.662;5.196;2024-01-30T05:56:19;101107.78;;;7.70;100.00
24788;BME280;12883;52.662;5.196;2024-01-30T05:58:44;101128.88;;;7.78;100.00
24788;BME280;12883;52.662;5.196;2024-01-30T06:01:10;101121.94;;;7.77;100.00
24788;BME280;12883;52.662;5.196;2024-01-30T06:03:35;101115.00;;;7.76;100.00
24788;BME280;12883;52.662;5.196;2024-01-30T06:06:01;101129.38;;;7.74;100.00
24788;BME280;12883;52.662;5.196;2024-01-30T06:08:26;101127.84;;;7.79;100.00
24788;BME280;12883;52.662;5.196;2024-01-30T06:10:51;101131.81;;;7.83;100.00
24788;BME280;12883;52.662;5.196;2024-01-30T06:13:17;101085.81;;;7.70;100.00
24788;BME280;12883;52.662;5.196;2024-01-30T06:15:43;101113.75;;;7.95;100.00
24788;BME280;12883;52.662;5.196;2024-01-30T06:18:08;101106.28;;;7.98;100.00
24788;BME280;12883;52.662;5.196;2024-01-30T06:20:33;101103.59;;;8.06;100.00
24788;BME280;12883;52.662;5.196;2024-01-30T06:22:59;101093.97;;;8.13;100.00
24788;BME280;12883;52.662;5.196;2024-01-30T06:25:24;101097.56;;;8.20;100.00
24788;BME280;12883;52.662;5.196;2024-01-30T06:27:50;101102.53;;;8.23;100.00
24788;BME280;12883;52.662;5.196;2024-01-30T06:30:15;101081.22;;;8.17;100.00
24788;BME280;12883;52.662;5.196;2024-01-30T06:32:40;101097.50;;;8.28;100.00
24788;BME280;12883;52.662;5.196;2024-01-30T06:35:06;101104.63;;;8.28;100.00
24788;BME280;12883;52.662;5.196;2024-01-30T06:37:32;101110.19;;;8.33;100.00
24788;BME280;12883;52.662;5.196;2024-01-30T06:39:57;101123.41;;;8.33;100.00
24788;BME280;12883;52.662;5.196;2024-01-30T06:42:22;101122.13;;;8.29;100.00
24788;BME280;12883;52.662;5.196;2024-01-30T06:44:48;101146.09;;;8.27;100.00
24788;BME280;12883;52.662;5.196;2024-01-30T06:47:13;101142.91;;;8.32;100.00
24788;BME280;12883;52.662;5.196;2024-01-30T06:49:38;101135.34;;;8.29;100.00
24788;BME280;12883;52.662;5.196;2024-01-30T06:52:07;101150.09;;;8.23;100.00
24788;BME280;12883;52.662;5.196;2024-01-30T06:54:33;101140.09;;;8.33;100.00
24788;BME280;12883;52.662;5.196;2024-01-30T06:56:59;101147.03;;;8.34;100.00
24788;BME280;12883;52.662;5.196;2024-01-30T06:59:24;101111.66;;;8.13;100.00
24788;BME280;12883;52.662;5.196;2024-01-30T07:01:50;101158.53;;;8.41;100.00
24788;BME280;12883;52.662;5.196;2024-01-30T07:04:15;101156.91;;;8.40;100.00
24788;BME280;12883;52.662;5.196;2024-01-30T07:06:41;101131.13;;;8.20;100.00
24788;BME280;12883;52.662;5.196;2024-01-30T07:09:06;101175.41;;;8.40;100.00
24788;BME280;12883;52.662;5.196;2024-01-30T07:11:32;101141.84;;;8.18;100.00
24788;BME280;12883;52.662;5.196;2024-01-30T07:13:57;101174.09;;;8.36;100.00
24788;BME280;12883;52.662;5.196;2024-01-30T07:16:23;101178.41;;;8.37;100.00
24788;BME280;12883;52.662;5.196;2024-01-30T07:18:48;101187.00;;;8.39;100.00
24788;BME280;12883;52.662;5.196;2024-01-30T07:21:14;101189.94;;;8.44;100.00
24788;BME280;12883;52.662;5.196;2024-01-30T07:23:40;101192.22;;;8.47;100.00
24788;BME280;12883;52.662;5.196;2024-01-30T07:26:06;101182.97;;;8.43;100.00
24788;BME280;12883;52.662;5.196;2024-01-30T07:28:32;101174.25;;;8.43;100.00
24788;BME280;12883;52.662;5.196;2024-01-30T07:30:57;101179.59;;;8.57;100.00
24788;BME280;12883;52.662;5.196;2024-01-30T07:33:23;101195.09;;;8.60;100.00
24788;BME280;12883;52.662;5.196;2024-01-30T07:35:48;101192.63;;;8.59;100.00
24788;BME280;12883;52.662;5.196;2024-01-30T07:38:14;101191.44;;;8.61;100.00
24788;BME280;12883;52.662;5.196;2024-01-30T07:40:39;101183.81;;;8.66;100.00
24788;BME280;12883;52.662;5.196;2024-01-30T07:43:04;101190.84;;;8.74;100.00
24788;BME280;12883;52.662;5.196;2024-01-30T07:45:30;101207.47;;;8.82;100.00
24788;BME280;12883;52.662;5.196;2024-01-30T07:47:59;101196.72;;;8.84;100.00
24788;BME280;12883;52.662;5.196;2024-01-30T07:50:27;101188.63;;;8.85;100.00
24788;BME280;12883;52.662;5.196;2024-01-30T07:52:52;101199.13;;;8.93;100.00
24788;BME280;12883;52.662;5.196;2024-01-30T07:55:23;101189.25;;;8.87;100.00
24788;BME280;12883;52.662;5.196;2024-01-30T07:57:57;101168.78;;;8.81;100.00
24788;BME280;12883;52.662;5.196;2024-01-30T08:00:22;101202.88;;;8.99;100.00
24788;BME280;12883;52.662;5.196;2024-01-30T08:02:47;101178.22;;;8.84;100.00
24788;BME280;12883;52.662;5.196;2024-01-30T08:05:13;101207.47;;;9.05;100.00
24788;BME280;12883;52.662;5.196;2024-01-30T08:07:41;101205.81;;;9.04;100.00
24788;BME280;12883;52.662;5.196;2024-01-30T08:10:07;101199.97;;;9.08;100.00
24788;BME280;12883;52.662;5.196;2024-01-30T08:12:33;101205.56;;;9.13;100.00
24788;BME280;12883;52.662;5.196;2024-01-30T08:14:58;101205.56;;;9.13;100.00
24788;BME280;12883;52.662;5.196;2024-01-30T08:17:23;101218.44;;;9.16;100.00
24788;BME280;12883;52.662;5.196;2024-01-30T08:19:49;101218.06;;;9.19;100.00
24788;BME280;12883;52.662;5.196;2024-01-30T08:22:14;101229.31;;;9.21;100.00
24788;BME280;12883;52.662;5.196;2024-01-30T08:24:41;101215.16;;;9.14;100.00
24788;BME280;12883;52.662;5.196;2024-01-30T08:27:06;101226.28;;;9.24;100.00
24788;BME280;12883;52.662;5.196;2024-01-30T08:29:35;101243.66;;;9.27;100.00
24788;BME280;12883;52.662;5.196;2024-01-30T08:32:00;101252.22;;;9.29;100.00
24788;BME280;12883;52.662;5.196;2024-01-30T08:34:25;101242.63;;;9.28;100.00
24788;BME280;12883;52.662;5.196;2024-01-30T08:36:51;101244.41;;;9.35;100.00
24788;BME280;12883;52.662;5.196;2024-01-30T08:39:16;101232.41;;;9.39;100.00
24788;BME280;12883;52.662;5.196;2024-01-30T08:41:41;101225.31;;;9.40;100.00
24788;BME280;12883;52.662;5.196;2024-01-30T08:44:06;101235.06;;;9.39;100.00
24788;BME280;12883;52.662;5.196;2024-01-30T08:46:32;101247.34;;;9.40;100.00
24788;BME280;12883;52.662;5.196;2024-01-30T08:48:58;101243.47;;;9.43;100.00
24788;BME280;12883;52.662;5.196;2024-01-30T08:51:23;101238.38;;;9.41;100.00
24788;BME280;12883;52.662;5.196;2024-01-30T08:53:48;101238.00;;;9.44;100.00
24788;BME280;12883;52.662;5.196;2024-01-30T08:56:13;101260.50;;;9.48;100.00
24788;BME280;12883;52.662;5.196;2024-01-30T08:58:41;101257.19;;;9.46;100.00
24788;BME280;12883;52.662;5.196;2024-01-30T09:01:06;101269.06;;;9.50;100.00
24788;BME280;12883;52.662;5.196;2024-01-30T09:03:32;101267.06;;;9.52;100.00
24788;BME280;12883;52.662;5.196;2024-01-30T09:05:57;101268.34;;;9.56;100.00
24788;BME280;12883;52.662;5.196;2024-01-30T09:08:22;101269.28;;;9.63;100.00
24788;BME280;12883;52.662;5.196;2024-01-30T09:10:48;101263.59;;;9.66;100.00
24788;BME280;12883;52.662;5.196;2024-01-30T09:13:15;101265.91;;;9.69;100.00
24788;BME280;12883;52.662;5.196;2024-01-30T09:15:40;101264.72;;;9.71;100.00
24788;BME280;12883;52.662;5.196;2024-01-30T09:18:06;101263.69;;;9.72;100.00
24788;BME280;12883;52.662;5.196;2024-01-30T09:20:31;101256.84;;;9.78;100.00
24788;BME280;12883;52.662;5.196;2024-01-30T09:22:57;101256.22;;;9.76;100.00
24788;BME280;12883;52.662;5.196;2024-01-30T09:25:22;101269.72;;;9.81;100.00
24788;BME280;12883;52.662;5.196;2024-01-30T09:27:47;101259.78;;;9.83;100.00
24788;BME280;12883;52.662;5.196;2024-01-30T09:30:13;101251.94;;;10.04;100.00
24788;BME280;12883;52.662;5.196;2024-01-30T09:32:39;101234.72;;;10.14;100.00
24788;BME280;12883;52.662;5.196;2024-01-30T09:35:05;101240.53;;;10.24;100.00
24788;BME280;12883;52.662;5.196;2024-01-30T09:37:31;101196.31;;;10.10;100.00
24788;BME280;12883;52.662;5.196;2024-01-30T09:39:56;101252.75;;;10.40;100.00
24788;BME280;12883;52.662;5.196;2024-01-30T09:42:34;101248.75;;;10.44;100.00
24788;BME280;12883;52.662;5.196;2024-01-30T09:45:01;101275.28;;;10.44;100.00
24788;BME280;12883;52.662;5.196;2024-01-30T09:47:51;101271.22;;;10.48;100.00
24788;BME280;12883;52.662;5.196;2024-01-30T09:50:17;101293.06;;;10.50;100.00
24788;BME280;12883;52.662;5.196;2024-01-30T09:52:46;101297.41;;;10.51;100.00
24788;BME280;12883;52.662;5.196;2024-01-30T09:55:12;101327.56;;;10.50;100.00
24788;BME280;12883;52.662;5.196;2024-01-30T09:57:38;101345.97;;;10.51;100.00
24788;BME280;12883;52.662;5.196;2024-01-30T10:00:04;101341.50;;;10.52;100.00
24788;BME280;12883;52.662;5.196;2024-01-30T10:02:31;101364.53;;;10.51;100.00
24788;BME280;12883;52.662;5.196;2024-01-30T10:04:57;101369.56;;;10.46;100.00
24788;BME280;12883;52.662;5.196;2024-01-30T10:07:22;101409.09;;;10.41;100.00
24788;BME280;12883;52.662;5.196;2024-01-30T10:09:48;101395.84;;;10.41;100.00
24788;BME280;12883;52.662;5.196;2024-01-30T10:12:15;101430.78;;;10.30;100.00
24788;BME280;12883;52.662;5.196;2024-01-30T10:14:41;101485.59;;;10.38;100.00
24788;BME280;12883;52.662;5.196;2024-01-30T10:17:11;101499.56;;;10.32;100.00
24788;BME280;12883;52.662;5.196;2024-01-30T10:19:38;101499.75;;;10.30;100.00
24788;BME280;12883;52.662;5.196;2024-01-30T10:22:04;101498.25;;;10.28;100.00
24788;BME280;12883;52.662;5.196;2024-01-30T10:24:29;101507.22;;;10.27;100.00
24788;BME280;12883;52.662;5.196;2024-01-30T10:26:55;101509.03;;;10.12;100.00
24788;BME280;12883;52.662;5.196;2024-01-30T10:29:21;101521.03;;;10.22;100.00
24788;BME280;12883;52.662;5.196;2024-01-30T10:31:57;101514.56;;;10.25;100.00
24788;BME280;12883;52.662;5.196;2024-01-30T10:34:22;101497.34;;;10.21;100.00
24788;BME280;12883;52.662;5.196;2024-01-30T10:36:50;101509.13;;;10.18;100.00
24788;BME280;12883;52.662;5.196;2024-01-30T10:39:17;101515.34;;;10.25;100.00
24788;BME280;12883;52.662;5.196;2024-01-30T10:41:43;101497.34;;;10.21;100.00
24788;BME280;12883;52.662;5.196;2024-01-30T10:44:10;101518.84;;;10.26;100.00
24788;BME280;12883;52.662;5.196;2024-01-30T10:46:38;101513.72;;;10.24;100.00
24788;BME280;12883;52.662;5.196;2024-01-30T10:49:04;101515.34;;;10.25;100.00
24788;BME280;12883;52.662;5.196;2024-01-30T10:51:32;101510.53;;;10.29;100.00
24788;BME280;12883;52.662;5.196;2024-01-30T10:53:57;101497.00;;;10.24;100.00
24788;BME280;12883;52.662;5.196;2024-01-30T10:56:24;101503.22;;;10.31;100.00
24788;BME280;12883;52.662;5.196;2024-01-30T10:58:53;101467.50;;;10.04;100.00
24788;BME280;12883;52.662;5.196;2024-01-30T11:01:20;101474.31;;;10.36;100.00
24788;BME280;12883;52.662;5.196;2024-01-30T11:03:49;101487.22;;;10.39;100.00
24788;BME280;12883;52.662;5.196;2024-01-30T11:06:16;101421.28;;;9.99;100.00
24788;BME280;12883;52.662;5.196;2024-01-30T11:08:44;101461.59;;;10.31;100.00
24788;BME280;12883;52.662;5.196;2024-01-30T11:11:10;101461.13;;;10.28;100.00
24788;BME280;12883;52.662;5.196;2024-01-30T11:13:35;101437.31;;;10.05;100.00
24788;BME280;12883;52.662;5.196;2024-01-30T11:16:04;101447.13;;;10.19;100.00
24788;BME280;12883;52.662;5.196;2024-01-30T11:18:31;101423.81;;;10.15;100.00
24788;BME280;12883;52.662;5.196;2024-01-30T11:20:58;101403.34;;;9.86;100.00
24788;BME280;12883;52.662;5.196;2024-01-30T11:23:25;101417.13;;;10.04;100.00
24788;BME280;12883;52.662;5.196;2024-01-30T11:25:55;101405.97;;;10.09;100.00
24788;BME280;12883;52.662;5.196;2024-01-30T11:28:21;101382.31;;;10.07;100.00
24788;BME280;12883;52.662;5.196;2024-01-30T11:30:47;101372.31;;;10.09;100.00
24788;BME280;12883;52.662;5.196;2024-01-30T11:33:30;101355.28;;;9.89;100.00
24788;BME280;12883;52.662;5.196;2024-01-30T11:35:57;101359.94;;;10.02;100.00
24788;BME280;12883;52.662;5.196;2024-01-30T11:38:25;101348.69;;;10.00;100.00
24788;BME280;12883;52.662;5.196;2024-01-30T11:40:51;101348.63;;;10.08;100.00
24788;BME280;12883;52.662;5.196;2024-01-30T11:43:18;101345.72;;;10.03;100.00
24788;BME280;12883;52.662;5.196;2024-01-30T11:45:44;101330.13;;;10.00;100.00
24788;BME280;12883;52.662;5.196;2024-01-30T11:48:12;101316.81;;;10.08;100.00
24788;BME280;12883;52.662;5.196;2024-01-30T11:50:39;101320.66;;;10.05;100.00
24788;BME280;12883;52.662;5.196;2024-01-30T11:53:05;101240.75;;;9.65;100.00
24788;BME280;12883;52.662;5.196;2024-01-30T11:55:31;101307.69;;;10.10;100.00
24788;BME280;12883;52.662;5.196;2024-01-30T11:57:57;101315.19;;;10.07;100.00
24788;BME280;12883;52.662;5.196;2024-01-30T12:00:24;101288.50;;;10.08;100.00
24788;BME280;12883;52.662;5.196;2024-01-30T12:02:50;101307.84;;;10.09;100.00
24788;BME280;12883;52.662;5.196;2024-01-30T12:05:16;101320.13;;;10.10;100.00
24788;BME280;12883;52.662;5.196;2024-01-30T12:07:44;101322.78;;;10.10;100.00
24788;BME280;12883;52.662;5.196;2024-01-30T12:10:09;101319.94;;;10.11;100.00
24788;BME280;12883;52.662;5.196;2024-01-30T12:12:35;101340.97;;;10.13;100.00
24788;BME280;12883;52.662;5.196;2024-01-30T12:15:01;101347.91;;;10.14;100.00
24788;BME280;12883;52.662;5.196;2024-01-30T12:17:30;101344.44;;;10.13;100.00
24788;BME280;12883;52.662;5.196;2024-01-30T12:22:28;101358.91;;;10.11;100.00
24788;BME280;12883;52.662;5.196;2024-01-30T12:24:53;101376.44;;;10.12;100.00
24788;BME280;12883;52.662;5.196;2024-01-30T12:27:19;101382.56;;;10.12;100.00
24788;BME280;12883;52.662;5.196;2024-01-30T12:29:44;101395.56;;;10.07;100.00
24788;BME280;12883;52.662;5.196;2024-01-30T12:32:15;101402.03;;;10.05;100.00
24788;BME280;12883;52.662;5.196;2024-01-30T12:34:41;101407.34;;;10.05;100.00
24788;BME280;12883;52.662;5.196;2024-01-30T12:37:07;101403.69;;;10.06;100.00
24788;BME280;12883;52.662;5.196;2024-01-30T12:39:34;101398.38;;;10.06;100.00
24788;BME280;12883;52.662;5.196;2024-01-30T12:42:00;101399.38;;;10.05;100.00
24788;BME280;12883;52.662;5.196;2024-01-30T12:44:26;101394.56;;;10.08;100.00